Pantego, Texas
Current Conditions -  °F | °C
As of 7:53 PM on Saturday 25 Oct 2014 (Local Time) from KGKY Reporting Station
Clear Clear  
Wind Chill: 76°   Ceiling: Unl
Heat Index: 76°   Visibility: 10mi
Dew Point: 60°   Wind: 5mph
Humidity: 58%   Direction: 140°SE
Pressure: 30.05"   Gusts: NA
Location:  32.6916°N, 97.1334°W
Report Text: KGKY 260053Z 14004KT 10SM CLR 24/16 A3005 RMK AO2 SLP170 T02440156
Loading
Personal Weather Stations






























Interactive Weather Map New forecast layout! Learn more

10-Day Weather Forecast

Advertisements
Track Severe Weather on mobile